Time;durP1;ratioP1;P1;durP2;ratioP2;P2;SDS_P1;SDS_P2;PMS_P1;PMS_P2;Temp;Humidity;BMP_temperature;BMP_pressure;BME280_temperature;BME280_humidity;BME280_pressure;Samples;Min_cycle;Max_cycle;Signal;HPM_P1;HPM_P2
2023/01/17 00:00:33;;;;;;;1.83;1.57;;;;;;;2.45;100.00;97579.88;5013671;28;20605;-71
2023/01/17 00:03:00;;;;;;;1.43;1.23;;;;;;;2.41;100.00;97576.59;5005227;28;20753;-72
2023/01/17 00:11:02;;;;;;;2.07;1.50;;;;;;;2.28;100.00;97568.53;4954616;28;21048;-72
2023/01/17 00:13:28;;;;;;;2.77;1.50;;;;;;;2.25;100.00;97570.38;5006118;28;20269;-72
2023/01/17 00:15:54;;;;;;;1.50;1.40;;;;;;;2.21;100.00;97571.44;5004827;28;20255;-71
2023/01/17 00:18:21;;;;;;;1.60;1.50;;;;;;;2.14;100.00;97565.69;5021578;28;20200;-72
2023/01/17 00:26:19;;;;;;;1.90;1.30;;;;;;;2.02;100.00;97556.78;5006539;28;20231;-71
2023/01/17 01:35:47;;;;;;;2.33;1.87;;;;;;;1.75;100.00;97514.19;5003595;28;20233;-71
2023/01/17 01:38:14;;;;;;;3.43;2.00;;;;;;;1.73;100.00;97506.53;5006824;28;20660;-72
2023/01/17 01:40:45;;;;;;;2.33;2.07;;;;;;;1.70;100.00;97502.34;5007224;28;20193;-71
2023/01/17 01:43:15;;;;;;;2.77;2.00;;;;;;;1.69;100.00;97505.00;5011083;28;20209;-71
2023/01/17 01:45:46;;;;;;;5.10;2.50;;;;;;;1.66;100.00;97493.09;5007939;28;20219;-71
2023/01/17 01:48:23;;;;;;;3.20;2.10;;;;;;;1.62;100.00;97501.84;5004683;28;20224;-71
2023/01/17 01:50:50;;;;;;;5.43;2.00;;;;;;;1.61;100.00;97499.31;5008063;28;20276;-71
2023/01/17 01:53:19;;;;;;;3.97;2.10;;;;;;;1.63;100.00;97497.53;5006845;28;20205;-71
2023/01/17 01:55:49;;;;;;;2.80;2.03;;;;;;;1.61;100.00;97500.16;5002154;28;20217;-72
2023/01/17 01:58:21;;;;;;;4.20;2.40;;;;;;;1.59;100.00;97499.38;5007584;28;20573;-71
2023/01/17 02:00:48;;;;;;;2.80;2.20;;;;;;;1.59;100.00;97496.81;5006242;28;20201;-71
2023/01/17 02:03:19;;;;;;;2.07;1.87;;;;;;;1.52;100.00;97503.91;5007726;28;20209;-71
2023/01/17 02:05:46;;;;;;;2.37;1.90;;;;;;;1.48;100.00;97504.94;5007340;28;20315;-74
2023/01/17 02:08:15;;;;;;;3.90;2.30;;;;;;;1.50;100.00;97503.16;5021728;28;20254;-74
2023/01/17 02:10:43;;;;;;;3.87;2.53;;;;;;;1.55;100.00;97497.84;5008689;28;20756;-71
2023/01/17 02:13:12;;;;;;;3.03;1.93;;;;;;;1.57;100.00;97503.75;5023410;28;20205;-71
2023/01/17 02:15:49;;;;;;;4.20;2.17;;;;;;;1.59;100.00;97501.94;5006580;28;20212;-71
2023/01/17 02:18:25;;;;;;;3.73;2.37;;;;;;;1.64;100.00;97497.47;5004992;28;20193;-72
2023/01/17 02:21:01;;;;;;;4.73;2.17;;;;;;;1.73;100.00;97496.25;5009054;28;20204;-71
2023/01/17 02:24:21;;;;;;;2.17;1.97;;;;;;;1.82;100.00;97492.50;5006180;28;20199;-71
2023/01/17 02:26:54;;;;;;;2.53;2.10;;;;;;;1.88;100.00;97502.50;5012068;28;20240;-71
2023/01/17 02:30:04;;;;;;;3.13;2.17;;;;;;;1.95;100.00;97492.81;5011209;28;20196;-71
2023/01/17 02:32:52;;;;;;;2.97;2.10;;;;;;;2.01;100.00;97492.56;5012041;28;20292;-71
2023/01/17 02:35:26;;;;;;;3.03;2.20;;;;;;;2.04;100.00;97487.28;5011124;28;20229;-71
2023/01/17 02:38:00;;;;;;;2.30;1.97;;;;;;;2.10;100.00;97489.63;5006760;28;20674;-71
2023/01/17 02:40:31;;;;;;;2.33;1.80;;;;;;;2.15;100.00;97492.00;5006514;28;20740;-72
2023/01/17 02:43:04;;;;;;;2.60;1.97;;;;;;;2.15;100.00;97495.41;5011906;28;20205;-72
2023/01/17 02:45:31;;;;;;;6.53;2.20;;;;;;;2.23;100.00;97498.50;5007689;28;20221;-72
2023/01/17 02:47:58;;;;;;;2.23;1.90;;;;;;;2.26;100.00;97498.34;5005378;28;20216;-72
2023/01/17 02:50:31;;;;;;;2.70;1.90;;;;;;;2.31;100.00;97499.91;5006447;28;20232;-72
2023/01/17 02:53:11;;;;;;;3.40;2.10;;;;;;;2.31;100.00;97495.59;5020500;28;20216;-72
2023/01/17 02:55:48;;;;;;;3.23;1.90;;;;;;;2.36;100.00;97498.81;5007728;28;20712;-72
2023/01/17 02:58:27;;;;;;;3.40;2.03;;;;;;;2.35;100.00;97494.56;5005999;28;20193;-72
2023/01/17 03:01:03;;;;;;;2.13;1.73;;;;;;;2.39;100.00;97493.53;5005225;28;20300;-72
2023/01/17 03:03:39;;;;;;;3.10;1.70;;;;;;;2.42;100.00;97498.53;5006185;28;20200;-72
2023/01/17 03:06:11;;;;;;;2.90;1.80;;;;;;;2.45;100.00;97498.41;5002696;28;20240;-72
2023/01/17 03:08:39;;;;;;;2.40;1.60;;;;;;;2.46;100.00;97497.50;5006342;28;20221;-72
2023/01/17 03:11:07;;;;;;;2.87;1.50;;;;;;;2.49;100.00;97506.00;5005166;28;20200;-72
2023/01/17 03:13:33;;;;;;;2.43;1.70;;;;;;;2.50;100.00;97503.34;5009839;28;20192;-72
2023/01/17 03:16:00;;;;;;;2.70;1.70;;;;;;;2.51;100.00;97499.88;5009689;28;20226;-72
2023/01/17 03:18:26;;;;;;;3.63;1.60;;;;;;;2.55;100.00;97506.56;5007310;28;20184;-72
2023/01/17 03:20:54;;;;;;;2.80;1.70;;;;;;;2.57;100.00;97503.91;5006753;28;20656;-72
2023/01/17 03:23:20;;;;;;;1.47;1.37;;;;;;;2.60;100.00;97517.50;5009900;28;20196;-72
2023/01/17 03:25:47;;;;;;;2.37;1.67;;;;;;;2.62;100.00;97513.13;5008129;28;20722;-72
2023/01/17 03:28:14;;;;;;;2.47;1.80;;;;;;;2.61;100.00;97511.44;5021612;28;20311;-72
2023/01/17 03:30:40;;;;;;;1.93;1.57;;;;;;;2.62;100.00;97512.25;5009156;28;20188;-72
2023/01/17 03:33:07;;;;;;;2.40;1.60;;;;;;;2.62;100.00;97515.69;5008513;28;20204;-72
2023/01/17 03:35:33;;;;;;;5.73;1.30;;;;;;;2.67;100.00;97512.06;5003978;28;20232;-72
2023/01/17 03:38:01;;;;;;;3.07;1.40;;;;;;;2.70;100.00;97507.63;5007802;28;20295;-72
2023/01/17 03:40:33;;;;;;;2.27;1.47;;;;;;;2.72;100.00;97520.44;5010031;28;20230;-72
2023/01/17 03:43:00;;;;;;;1.57;1.40;;;;;;;2.72;100.00;97521.25;5009928;28;20212;-72
2023/01/17 03:45:26;;;;;;;1.90;1.43;;;;;;;2.72;100.00;97523.81;5011003;28;20223;-72
2023/01/17 03:47:52;;;;;;;1.40;1.20;;;;;;;2.75;100.00;97523.69;5008397;28;20221;-72
2023/01/17 03:50:19;;;;;;;3.57;1.30;;;;;;;2.76;100.00;97527.09;5011665;28;20209;-72
2023/01/17 03:52:45;;;;;;;1.87;1.30;;;;;;;2.76;100.00;97524.53;5010111;28;20204;-72
2023/01/17 03:55:13;;;;;;;1.73;1.40;;;;;;;2.78;100.00;97526.13;5008559;28;20230;-72
2023/01/17 03:57:39;;;;;;;1.87;1.30;;;;;;;2.82;100.00;97527.66;5010272;28;20208;-72
2023/01/17 04:00:07;;;;;;;1.23;1.07;;;;;;;2.87;100.00;97531.75;5010202;28;20192;-72
2023/01/17 04:02:34;;;;;;;1.23;1.07;;;;;;;2.91;100.00;97533.31;5008222;28;20200;-72
2023/01/17 04:05:00;;;;;;;2.53;1.20;;;;;;;2.91;100.00;97531.56;5007258;28;20228;-72
2023/01/17 04:07:26;;;;;;;1.20;1.10;;;;;;;2.94;100.00;97530.63;5008907;28;20203;-72
2023/01/17 04:09:53;;;;;;;1.80;1.10;;;;;;;2.96;100.00;97536.53;5007499;28;20198;-72
2023/01/17 04:12:21;;;;;;;1.57;1.03;;;;;;;2.97;100.00;97536.47;5004681;28;20323;-72
2023/01/17 04:14:47;;;;;;;1.50;0.90;;;;;;;3.02;100.00;97538.81;5006510;28;20190;-72
2023/01/17 04:17:18;;;;;;;2.47;1.00;;;;;;;3.02;100.00;97536.25;5006831;28;20207;-72
2023/01/17 04:19:44;;;;;;;0.70;0.70;;;;;;;3.07;100.00;97541.19;5012234;28;20204;-72
2023/01/17 04:22:10;;;;;;;0.70;0.70;;;;;;;3.12;100.00;97546.97;5009066;28;20300;-72
2023/01/17 04:24:37;;;;;;;2.40;0.77;;;;;;;3.15;100.00;97546.81;5008784;28;20681;-72
2023/01/17 04:27:04;;;;;;;0.53;0.53;;;;;;;3.24;100.00;97549.00;5005217;28;20304;-72
2023/01/17 04:29:32;;;;;;;0.97;0.50;;;;;;;3.30;100.00;97545.28;5005523;28;20217;-72
2023/01/17 04:31:58;;;;;;;0.40;0.40;;;;;;;3.26;100.00;97547.19;5000212;28;20495;-72
2023/01/17 04:34:25;;;;;;;0.30;0.30;;;;;;;3.24;100.00;97541.28;5007250;28;20204;-72
2023/01/17 04:36:51;;;;;;;0.40;0.40;;;;;;;3.26;100.00;97539.44;5005032;28;20733;-72
2023/01/17 04:39:17;;;;;;;0.40;0.40;;;;;;;3.28;100.00;97552.25;5005817;28;20201;-72
2023/01/17 04:41:44;;;;;;;0.30;0.30;;;;;;;3.32;100.00;97548.63;5009532;28;20204;-72
2023/01/17 04:44:10;;;;;;;0.53;0.30;;;;;;;3.37;100.00;97554.41;5010428;28;20726;-72
2023/01/17 04:46:38;;;;;;;0.30;0.30;;;;;;;3.42;100.00;97567.91;5006816;28;20236;-72
2023/01/17 04:49:04;;;;;;;0.27;0.27;;;;;;;3.42;100.00;97578.22;5007661;28;20925;-72
2023/01/17 04:51:31;;;;;;;0.30;0.30;;;;;;;3.41;100.00;97576.53;5008670;28;20230;-72
2023/01/17 04:53:57;;;;;;;0.67;0.40;;;;;;;3.36;100.00;97576.75;5006594;28;20210;-72
2023/01/17 04:56:23;;;;;;;0.30;0.30;;;;;;;3.36;100.00;97568.19;5004816;28;20717;-72
2023/01/17 04:58:50;;;;;;;0.30;0.30;;;;;;;3.34;100.00;97590.59;5018788;28;20212;-72
2023/01/17 05:01:16;;;;;;;0.60;0.30;;;;;;;3.31;100.00;97590.75;5005086;28;20335;-72
2023/01/17 05:03:44;;;;;;;0.37;0.37;;;;;;;3.25;100.00;97585.88;5000576;28;20201;-72
2023/01/17 05:06:10;;;;;;;0.50;0.50;;;;;;;3.20;100.00;97596.34;5002624;28;20327;-72
2023/01/17 05:08:37;;;;;;;0.40;0.40;;;;;;;3.11;100.00;97597.59;5004830;28;20223;-72
2023/01/17 05:11:03;;;;;;;0.30;0.30;;;;;;;3.01;100.00;97588.63;5001054;28;20282;-72
2023/01/17 05:13:29;;;;;;;0.50;0.50;;;;;;;2.92;100.00;97594.16;5004839;28;20209;-72
2023/01/17 05:15:57;;;;;;;0.77;0.60;;;;;;;2.87;100.00;97602.09;5000130;28;20220;-72
2023/01/17 05:18:23;;;;;;;0.30;0.30;;;;;;;2.81;100.00;97602.34;5000799;28;20224;-72
2023/01/17 05:20:51;;;;;;;1.70;0.30;;;;;;;2.75;100.00;97589.75;5000123;28;20269;-72
2023/01/17 05:23:17;;;;;;;1.37;0.40;;;;;;;2.72;100.00;97608.72;5020116;28;20205;-72
2023/01/17 05:25:44;;;;;;;0.50;0.50;;;;;;;2.69;100.00;97603.72;5006516;28;20235;-72
2023/01/17 05:28:11;;;;;;;0.40;0.40;;;;;;;2.67;100.00;97609.81;5003950;28;20227;-72
2023/01/17 05:30:38;;;;;;;0.30;0.30;;;;;;;2.67;100.00;97614.97;5000397;28;20202;-72
2023/01/17 05:33:04;;;;;;;0.23;0.23;;;;;;;2.62;100.00;97616.00;5002886;28;20662;-72
2023/01/17 05:35:32;;;;;;;0.47;0.47;;;;;;;2.63;100.00;97614.25;5005616;28;20229;-72
2023/01/17 05:38:00;;;;;;;1.17;0.40;;;;;;;2.61;100.00;97611.75;5005587;28;20204;-72
2023/01/17 05:40:28;;;;;;;1.50;0.40;;;;;;;2.59;100.00;97610.16;5003701;28;20196;-72
2023/01/17 05:42:57;;;;;;;0.50;0.50;;;;;;;2.59;100.00;97620.44;5007277;28;20213;-72
2023/01/17 05:45:25;;;;;;;0.33;0.33;;;;;;;2.58;100.00;97629.06;5010780;28;20219;-72
2023/01/17 05:47:53;;;;;;;0.50;0.50;;;;;;;2.56;100.00;97634.25;4996480;28;20211;-72
2023/01/17 05:50:24;;;;;;;0.50;0.50;;;;;;;2.54;100.00;97633.50;4999225;28;20223;-72
2023/01/17 05:52:52;;;;;;;0.50;0.40;;;;;;;2.55;100.00;97639.47;4993140;28;20789;-72
2023/01/17 05:55:21;;;;;;;0.47;0.47;;;;;;;2.55;100.00;97648.03;4997459;28;20239;-72
2023/01/17 05:57:47;;;;;;;0.50;0.50;;;;;;;2.55;100.00;97644.59;4996373;28;21364;-72
2023/01/17 06:00:15;;;;;;;0.50;0.50;;;;;;;2.54;100.00;97648.94;5000559;28;20205;-72
2023/01/17 06:02:41;;;;;;;0.40;0.40;;;;;;;2.54;100.00;97653.25;4992497;28;20424;-72
2023/01/17 06:05:09;;;;;;;0.83;0.60;;;;;;;2.54;100.00;97656.63;5004910;28;20276;-72
2023/01/17 06:07:35;;;;;;;1.03;0.57;;;;;;;2.54;100.00;97661.78;4984368;28;20216;-72
2023/01/17 06:10:02;;;;;;;1.10;0.53;;;;;;;2.53;100.00;97670.38;4983233;28;20221;-72
2023/01/17 06:12:31;;;;;;;0.90;0.77;;;;;;;2.56;100.00;97667.69;5017184;28;20206;-72
2023/01/17 06:14:57;;;;;;;0.40;0.40;;;;;;;2.60;100.00;97670.97;4984040;28;20211;-72
2023/01/17 06:17:23;;;;;;;0.50;0.50;;;;;;;2.60;100.00;97671.84;4981515;28;20220;-72
2023/01/17 06:19:50;;;;;;;0.40;0.40;;;;;;;2.64;100.00;97677.69;4983033;28;20402;-72
2023/01/17 06:22:16;;;;;;;0.50;0.50;;;;;;;2.66;100.00;97681.03;4980884;28;20209;-72
2023/01/17 06:24:42;;;;;;;0.90;0.50;;;;;;;2.67;100.00;97685.25;4978528;28;20212;-72
2023/01/17 06:27:09;;;;;;;0.70;0.57;;;;;;;2.68;100.00;97681.81;4981512;28;20221;-72
2023/01/17 06:29:37;;;;;;;4.03;0.50;;;;;;;2.72;100.00;97691.06;4989278;28;20225;-72
2023/01/17 06:32:04;;;;;;;0.60;0.60;;;;;;;2.79;100.00;97700.19;4982967;28;20197;-72
2023/01/17 06:34:30;;;;;;;0.77;0.43;;;;;;;2.79;100.00;97702.75;4984587;28;20410;-72
2023/01/17 06:36:56;;;;;;;0.63;0.57;;;;;;;2.86;100.00;97710.25;4986425;28;21318;-72
2023/01/17 06:39:23;;;;;;;1.40;0.70;;;;;;;2.83;100.00;97706.06;4983470;28;20200;-72
2023/01/17 06:41:49;;;;;;;0.60;0.60;;;;;;;2.83;100.00;97700.91;4992811;28;20205;-72
2023/01/17 06:44:15;;;;;;;0.50;0.50;;;;;;;2.83;100.00;97709.47;5004592;28;20213;-72
2023/01/17 06:46:43;;;;;;;0.57;0.57;;;;;;;2.84;100.00;97716.28;4989426;28;20233;-72
2023/01/17 06:49:10;;;;;;;0.83;0.60;;;;;;;2.88;100.00;97721.31;4985484;28;20225;-72
2023/01/17 06:51:36;;;;;;;0.60;0.60;;;;;;;2.92;100.00;97736.56;4989715;28;20205;-72
2023/01/17 06:54:03;;;;;;;1.23;0.80;;;;;;;2.95;100.00;97751.03;4988158;28;20210;-72
2023/01/17 06:56:30;;;;;;;0.70;0.60;;;;;;;2.99;100.00;97738.00;4990807;28;20226;-72
2023/01/17 06:58:56;;;;;;;0.63;0.57;;;;;;;3.01;100.00;97748.22;4987251;28;20598;-72
2023/01/17 07:01:23;;;;;;;1.20;0.40;;;;;;;2.96;100.00;97750.97;4986209;28;20581;-72
2023/01/17 07:03:51;;;;;;;0.57;0.57;;;;;;;3.00;100.00;97752.53;4987505;28;20201;-72
2023/01/17 07:06:18;;;;;;;1.70;0.70;;;;;;;3.01;100.00;97751.63;4990063;28;21863;-72
2023/01/17 07:08:44;;;;;;;2.40;0.93;;;;;;;3.00;100.00;97752.53;4988625;28;20721;-72
2023/01/17 07:11:11;;;;;;;0.80;0.57;;;;;;;3.02;100.00;97762.75;5004997;28;20249;-72
2023/01/17 07:13:38;;;;;;;0.87;0.80;;;;;;;2.98;100.00;97758.66;4993116;28;20899;-72
2023/01/17 07:16:05;;;;;;;1.37;0.70;;;;;;;2.98;100.00;97764.63;4992455;28;20587;-72
2023/01/17 07:18:32;;;;;;;1.07;0.80;;;;;;;3.02;100.00;97755.88;4991862;28;20204;-72
2023/01/17 07:21:00;;;;;;;1.20;0.80;;;;;;;3.02;100.00;97755.03;4993291;28;20473;-72
2023/01/17 07:23:28;;;;;;;0.70;0.70;;;;;;;2.96;100.00;97752.72;4992294;28;20261;-72
2023/01/17 07:25:55;;;;;;;1.90;0.70;;;;;;;2.93;100.00;97756.25;4993487;28;20221;-72
2023/01/17 07:28:23;;;;;;;0.83;0.60;;;;;;;2.91;100.00;97768.34;5003911;28;20206;-72
2023/01/17 07:30:49;;;;;;;0.63;0.63;;;;;;;2.91;100.00;97757.22;4993878;28;20222;-72
2023/01/17 07:33:16;;;;;;;1.20;0.80;;;;;;;2.94;100.00;97767.41;4992909;28;20210;-72
2023/01/17 07:35:42;;;;;;;0.60;0.60;;;;;;;2.94;100.00;97775.13;4992532;28;20317;-72
2023/01/17 07:38:14;;;;;;;1.87;1.10;;;;;;;2.95;100.00;97779.34;4990948;28;20198;-72
2023/01/17 07:40:41;;;;;;;0.90;0.60;;;;;;;2.96;100.00;97776.72;4990454;28;20693;-72
2023/01/17 07:43:12;;;;;;;0.70;0.70;;;;;;;2.96;100.00;97781.03;4996046;28;20256;-72
2023/01/17 07:45:40;;;;;;;1.23;0.90;;;;;;;2.96;100.00;97779.31;4990828;28;21311;-72
2023/01/17 07:48:07;;;;;;;3.33;1.57;;;;;;;2.93;100.00;97787.13;4991379;28;20194;-72
2023/01/17 07:50:33;;;;;;;1.27;0.80;;;;;;;2.94;100.00;97790.56;4992324;28;20225;-72
2023/01/17 07:52:59;;;;;;;1.87;1.20;;;;;;;2.98;100.00;97784.38;4989528;28;20209;-72
2023/01/17 07:55:27;;;;;;;1.70;1.20;;;;;;;3.01;100.00;97797.16;4993498;28;20531;-72
2023/01/17 07:57:53;;;;;;;0.70;0.70;;;;;;;3.03;100.00;97790.19;4987778;28;20309;-72
2023/01/17 08:00:21;;;;;;;1.37;1.00;;;;;;;3.04;100.00;97802.16;4989738;28;20201;-72
2023/01/17 08:02:48;;;;;;;1.00;0.80;;;;;;;3.07;100.00;97807.19;4991534;28;20197;-72
2023/01/17 08:05:15;;;;;;;1.07;0.70;;;;;;;3.12;100.00;97809.56;4990025;28;20260;-72
2023/01/17 08:07:41;;;;;;;0.70;0.70;;;;;;;3.11;100.00;97807.88;4987355;28;20194;-72
2023/01/17 08:10:16;;;;;;;7.47;2.30;;;;;;;3.16;100.00;97808.53;4988460;28;20251;-72
2023/01/17 08:12:44;;;;;;;4.17;1.80;;;;;;;3.18;100.00;97814.47;4987516;28;20276;-72
2023/01/17 08:15:11;;;;;;;0.90;0.80;;;;;;;3.18;100.00;97817.03;4990486;28;20204;-72
2023/01/17 08:17:38;;;;;;;5.20;2.50;;;;;;;3.16;100.00;97808.53;5006792;28;20593;-72
2023/01/17 08:20:05;;;;;;;1.07;0.73;;;;;;;3.16;100.00;97817.09;4990322;28;20242;-72
2023/01/17 08:22:32;;;;;;;2.10;1.50;;;;;;;3.16;100.00;97818.84;4988375;28;20194;-72
2023/01/17 08:24:58;;;;;;;0.80;0.70;;;;;;;3.17;100.00;97818.78;4990900;28;20625;-72
2023/01/17 08:27:25;;;;;;;0.70;0.70;;;;;;;3.16;100.00;97826.56;5005365;28;20774;-72
2023/01/17 08:29:52;;;;;;;0.80;0.70;;;;;;;3.16;100.00;97824.81;4990252;28;20214;-72
2023/01/17 08:32:20;;;;;;;0.97;0.70;;;;;;;3.17;100.00;97828.25;4989544;28;20865;-72
2023/01/17 08:34:46;;;;;;;1.23;0.70;;;;;;;3.18;100.00;97828.19;4989888;28;20232;-72
2023/01/17 08:37:13;;;;;;;1.33;1.03;;;;;;;3.22;100.00;97826.31;4986433;28;20216;-72
2023/01/17 08:39:39;;;;;;;1.10;0.87;;;;;;;3.25;100.00;97836.47;4989235;28;20197;-72
2023/01/17 08:42:07;;;;;;;2.33;0.90;;;;;;;3.27;100.00;97837.25;4987415;28;20208;-72
2023/01/17 08:44:33;;;;;;;0.83;0.77;;;;;;;3.30;100.00;97829.41;4992134;28;20201;-72
2023/01/17 08:47:02;;;;;;;1.40;0.93;;;;;;;3.32;100.00;97839.66;5005980;28;20236;-72
2023/01/17 08:49:28;;;;;;;0.77;0.70;;;;;;;3.33;100.00;97849.06;4987224;28;20213;-72
2023/01/17 08:51:55;;;;;;;0.70;0.67;;;;;;;3.33;100.00;97839.59;4982921;28;20207;-72
2023/01/17 08:54:21;;;;;;;1.70;0.70;;;;;;;3.38;100.00;97842.00;4984675;28;20643;-72
2023/01/17 08:56:48;;;;;;;1.30;0.97;;;;;;;3.41;100.00;97847.84;4983518;28;20225;-72
2023/01/17 08:59:14;;;;;;;1.80;0.73;;;;;;;3.43;100.00;97847.78;4987858;28;20268;-72
2023/01/17 09:01:41;;;;;;;1.27;0.80;;;;;;;3.46;100.00;97857.94;4990348;28;20201;-72
2023/01/17 09:04:09;;;;;;;2.70;0.90;;;;;;;3.50;100.00;97853.50;4986241;28;20202;-72
2023/01/17 09:06:37;;;;;;;1.10;0.83;;;;;;;3.55;100.00;97855.00;4985475;28;20225;-72
2023/01/17 09:09:04;;;;;;;1.20;0.80;;;;;;;3.57;100.00;97860.94;4987376;28;20634;-72
2023/01/17 09:11:30;;;;;;;1.00;0.90;;;;;;;3.60;100.00;97867.69;4988217;28;20212;-72
2023/01/17 09:13:57;;;;;;;0.90;0.70;;;;;;;3.62;100.00;97870.19;4989919;28;20211;-72
2023/01/17 09:16:23;;;;;;;0.70;0.70;;;;;;;3.59;100.00;97878.91;4991361;28;20217;-72
2023/01/17 09:18:53;;;;;;;2.27;0.70;;;;;;;3.60;100.00;97880.56;5005468;28;20209;-72
2023/01/17 09:21:21;;;;;;;2.30;1.47;;;;;;;3.65;100.00;97882.97;4988070;28;20277;-72
2023/01/17 09:23:48;;;;;;;1.57;1.20;;;;;;;3.68;100.00;97888.00;4986570;28;20201;-72
2023/01/17 09:26:18;;;;;;;1.03;0.90;;;;;;;3.71;100.00;97885.25;4987978;28;20224;-72
2023/01/17 09:28:45;;;;;;;1.47;0.83;;;;;;;3.70;100.00;97894.75;4989062;28;20541;-72
2023/01/17 09:31:11;;;;;;;0.80;0.67;;;;;;;3.66;100.00;97900.06;4988491;28;20220;-72
2023/01/17 09:33:40;;;;;;;1.20;1.10;;;;;;;3.67;100.00;97904.34;5004024;28;20203;-72
2023/01/17 09:36:07;;;;;;;1.60;1.00;;;;;;;3.68;100.00;97906.03;4992853;28;20220;-72
2023/01/17 09:38:34;;;;;;;1.37;0.70;;;;;;;3.67;100.00;97915.47;4990830;28;20685;-72
2023/01/17 09:41:04;;;;;;;0.73;0.70;;;;;;;3.69;100.00;97913.66;4992311;28;20209;-72
2023/01/17 09:43:40;;;;;;;0.80;0.80;;;;;;;3.74;100.00;97926.38;4991400;28;20205;-72
2023/01/17 09:46:21;;;;;;;1.83;0.83;;;;;;;3.73;100.00;97922.13;4985826;28;20297;-72
2023/01/17 09:48:49;;;;;;;0.60;0.60;;;;;;;3.66;100.00;97915.53;4987147;28;20219;-72
2023/01/17 09:51:21;;;;;;;1.90;0.77;;;;;;;3.58;100.00;97915.88;4992025;28;20457;-72
2023/01/17 09:53:50;;;;;;;0.87;0.80;;;;;;;3.47;100.00;97915.47;4992455;28;20852;-72
2023/01/17 09:56:19;;;;;;;0.80;0.80;;;;;;;3.45;100.00;97920.69;4993137;28;20213;-72
2023/01/17 09:58:53;;;;;;;1.43;0.87;;;;;;;3.46;100.00;97914.63;4989440;28;20292;-72
2023/01/17 10:01:30;;;;;;;0.90;0.80;;;;;;;3.55;100.00;97924.56;4994502;28;20200;-72
2023/01/17 10:04:09;;;;;;;0.70;0.67;;;;;;;3.66;100.00;97933.56;4999916;28;20282;-72
2023/01/17 10:06:45;;;;;;;1.17;0.90;;;;;;;3.87;100.00;97922.41;4994831;28;20629;-72
2023/01/17 10:09:32;;;;;;;1.20;0.90;;;;;;;3.99;100.00;97936.50;4991986;28;20669;-72
2023/01/17 10:12:18;;;;;;;1.20;1.10;;;;;;;3.98;100.00;97938.25;4994610;28;20211;-72
2023/01/17 10:15:14;;;;;;;1.03;0.93;;;;;;;3.97;100.00;97946.91;5003415;28;20201;-72
2023/01/17 10:17:52;;;;;;;0.77;0.70;;;;;;;3.92;100.00;97950.53;4989151;28;20206;-72
2023/01/17 10:20:40;;;;;;;2.70;1.40;;;;;;;3.97;100.00;97946.91;4993398;28;20295;-72
2023/01/17 10:23:32;;;;;;;1.33;0.70;;;;;;;4.00;100.00;97961.38;4992782;28;20197;-72
2023/01/17 10:26:02;;;;;;;0.60;0.60;;;;;;;4.06;100.00;97952.56;4989884;28;20221;-72
2023/01/17 10:28:34;;;;;;;1.00;0.60;;;;;;;4.13;100.00;97956.53;4989513;28;20205;-72
2023/01/17 10:31:04;;;;;;;3.40;1.23;;;;;;;4.24;100.00;97954.34;4991055;28;20263;-72
2023/01/17 10:33:39;;;;;;;1.00;0.90;;;;;;;4.24;100.00;97954.34;4992320;28;20300;-72
2023/01/17 10:36:11;;;;;;;2.13;0.87;;;;;;;4.23;100.00;97957.84;4988721;28;20732;-72
2023/01/17 10:38:38;;;;;;;1.73;1.40;;;;;;;4.23;100.00;97967.31;4983794;28;20201;-72
2023/01/17 10:41:10;;;;;;;3.53;1.30;;;;;;;4.29;100.00;97970.47;4990895;28;20216;-72
2023/01/17 10:43:46;;;;;;;2.03;0.90;;;;;;;4.37;100.00;97967.56;4993769;28;20204;-72
2023/01/17 10:46:16;;;;;;;0.53;0.50;;;;;;;4.36;100.00;97976.19;5001492;28;20252;-72
2023/01/17 10:48:44;;;;;;;0.83;0.77;;;;;;;4.37;100.00;97983.03;4986871;28;20216;-72
2023/01/17 10:51:27;;;;;;;1.77;1.50;;;;;;;4.41;100.00;97976.00;4990120;28;20217;-72
2023/01/17 10:54:09;;;;;;;3.10;1.70;;;;;;;4.29;100.00;97987.69;4990788;28;20225;-72
2023/01/17 10:56:39;;;;;;;1.27;0.80;;;;;;;4.18;100.00;97988.13;4985079;28;20221;-72
2023/01/17 10:59:27;;;;;;;3.50;1.30;;;;;;;4.11;100.00;97987.56;4987908;28;20197;-72
2023/01/17 11:01:53;;;;;;;1.13;1.03;;;;;;;4.17;100.00;97983.91;4991158;28;20201;-72
2023/01/17 11:04:22;;;;;;;3.10;1.90;;;;;;;4.20;100.00;97975.19;4988656;28;20209;-72
2023/01/17 11:07:10;;;;;;;2.40;1.77;;;;;;;4.17;100.00;97984.72;4987995;28;21100;-72
2023/01/17 11:09:38;;;;;;;1.10;1.00;;;;;;;4.21;100.00;97977.69;5002585;28;20484;-72
2023/01/17 11:12:22;;;;;;;7.70;4.37;;;;;;;4.23;100.00;97981.03;4989331;28;20204;-72
2023/01/17 11:14:57;;;;;;;3.73;1.20;;;;;;;4.20;100.00;97988.06;4989353;28;20849;-72
2023/01/17 11:17:26;;;;;;;6.03;1.93;;;;;;;4.17;100.00;97989.06;4990852;28;20493;-72
2023/01/17 11:19:53;;;;;;;8.90;2.43;;;;;;;4.14;100.00;97991.75;4988399;28;20225;-72
2023/01/17 11:22:20;;;;;;;2.73;1.70;;;;;;;4.06;100.00;97988.66;4991287;28;20201;-72
2023/01/17 11:24:52;;;;;;;2.27;1.00;;;;;;;4.08;100.00;97992.00;4984707;28;20201;-72
2023/01/17 11:27:26;;;;;;;4.93;2.73;;;;;;;4.06;100.00;97999.78;4985049;28;20224;-72
2023/01/17 11:30:04;;;;;;;3.63;1.70;;;;;;;4.07;100.00;97998.06;4987108;28;20706;-72
2023/01/17 11:32:32;;;;;;;2.43;1.53;;;;;;;4.08;100.00;97999.72;4990427;28;20268;-72
2023/01/17 11:35:07;;;;;;;7.40;3.50;;;;;;;4.03;100.00;98005.09;4985475;28;20205;-72
2023/01/17 11:37:34;;;;;;;2.83;1.70;;;;;;;4.01;100.00;98004.31;4992325;28;20304;-72
2023/01/17 11:40:07;;;;;;;4.03;1.57;;;;;;;3.96;100.00;98001.09;4991407;28;20633;-72
2023/01/17 11:42:37;;;;;;;2.53;1.00;;;;;;;3.92;100.00;98002.97;4995997;28;20193;-72
2023/01/17 11:45:23;;;;;;;2.13;1.10;;;;;;;3.90;100.00;98003.91;4991557;28;20196;-72
2023/01/17 11:48:04;;;;;;;0.97;0.70;;;;;;;3.89;100.00;98010.81;4985057;28;20211;-72
2023/01/17 11:50:30;;;;;;;3.90;2.03;;;;;;;3.93;100.00;98014.94;4989965;28;20213;-72
2023/01/17 11:53:05;;;;;;;2.07;1.23;;;;;;;3.98;100.00;98010.44;4991226;28;20654;-72
2023/01/17 11:55:31;;;;;;;0.63;0.60;;;;;;;3.95;100.00;98027.78;4986719;28;20224;-72
2023/01/17 11:57:59;;;;;;;0.60;0.50;;;;;;;3.95;100.00;98031.19;4983362;28;20202;-72
2023/01/17 12:00:36;;;;;;;0.60;0.60;;;;;;;3.91;100.00;98039.94;4988550;28;20197;-72
2023/01/17 12:03:17;;;;;;;1.03;0.90;;;;;;;3.91;100.00;98037.38;4986581;28;20447;-72
2023/01/17 12:05:53;;;;;;;1.20;1.10;;;;;;;3.86;100.00;98034.13;5006027;22;20804;-74
2023/01/17 12:08:30;;;;;;;0.67;0.60;;;;;;;3.82;100.00;98037.75;4997519;28;20234;-74
2023/01/17 12:11:05;;;;;;;0.60;0.60;;;;;;;3.78;100.00;98043.91;4981199;28;20256;-74
2023/01/17 12:14:00;;;;;;;1.23;0.60;;;;;;;3.76;100.00;98045.72;4980553;28;20236;-74
2023/01/17 12:16:42;;;;;;;1.03;0.63;;;;;;;3.70;100.00;98031.31;4981464;28;20209;-73
2023/01/17 12:19:31;;;;;;;0.60;0.60;;;;;;;3.68;100.00;98040.03;4981100;28;20209;-73
2023/01/17 12:22:18;;;;;;;0.73;0.63;;;;;;;3.65;100.00;98037.56;4980277;28;20237;-73
2023/01/17 12:25:27;;;;;;;0.60;0.60;;;;;;;3.59;100.00;98036.91;4982641;28;20289;-72
2023/01/17 12:28:15;;;;;;;0.57;0.57;;;;;;;3.60;100.00;98045.47;4957767;28;20718;-72
2023/01/17 12:31:00;;;;;;;0.83;0.70;;;;;;;3.64;100.00;98043.59;4986863;28;20579;-73
2023/01/17 12:33:36;;;;;;;2.47;1.00;;;;;;;3.63;100.00;98044.53;4985212;28;20225;-74
2023/01/17 12:36:07;;;;;;;1.30;0.80;;;;;;;3.64;100.00;98046.19;4985542;28;20220;-73
2023/01/17 12:38:37;;;;;;;2.10;1.10;;;;;;;3.64;100.00;98044.47;4984054;28;20288;-73
2023/01/17 12:41:09;;;;;;;1.67;0.90;;;;;;;3.63;100.00;98049.69;4986421;28;20589;-72
2023/01/17 12:43:39;;;;;;;0.60;0.60;;;;;;;3.66;100.00;98039.22;4983376;28;20736;-72
2023/01/17 12:46:19;;;;;;;1.27;0.63;;;;;;;3.69;100.00;98039.94;4986493;28;20653;-72
2023/01/17 12:48:50;;;;;;;0.83;0.60;;;;;;;3.75;100.00;98047.44;4986028;28;20292;-73
2023/01/17 12:51:22;;;;;;;0.60;0.60;;;;;;;3.76;100.00;98049.16;4986750;28;20208;-73
2023/01/17 12:53:59;;;;;;;3.83;0.47;;;;;;;3.81;100.00;98053.28;4981801;28;20496;-71
2023/01/17 12:56:30;;;;;;;2.53;0.90;;;;;;;3.82;100.00;98054.94;4985271;28;20720;-73
2023/01/17 12:59:07;;;;;;;0.70;0.70;;;;;;;3.79;100.00;98056.72;4984715;28;20216;-73
2023/01/17 13:01:38;;;;;;;1.20;0.63;;;;;;;3.78;100.00;98067.09;4986695;28;20224;-74
2023/01/17 13:04:16;;;;;;;0.80;0.60;;;;;;;3.82;100.00;98067.81;4983977;28;20220;-73
2023/01/17 13:06:52;;;;;;;0.67;0.50;;;;;;;3.81;100.00;98061.00;4981914;28;20221;-71